sensor_id;sensor_type;location;lat;lon;timestamp;pressure;altitude;pressure_sealevel;temperature;humidity
59873;BME280;50750;51.636;4.948;2023-07-31T00:00:57;101167.50;;;22.28;55.72
59873;BME280;50750;51.636;4.948;2023-07-31T00:03:26;101169.08;;;22.29;55.77
59873;BME280;50750;51.636;4.948;2023-07-31T00:05:53;101170.55;;;22.28;55.79
59873;BME280;50750;51.636;4.948;2023-07-31T00:08:19;101174.32;;;22.28;55.70
59873;BME280;50750;51.636;4.948;2023-07-31T00:10:45;101170.42;;;22.28;55.74
59873;BME280;50750;51.636;4.948;2023-07-31T00:13:12;101172.74;;;22.28;55.84
59873;BME280;50750;51.636;4.948;2023-07-31T00:15:39;101169.35;;;22.28;55.81
59873;BME280;50750;51.636;4.948;2023-07-31T00:18:06;101162.05;;;22.27;55.79
59873;BME280;50750;51.636;4.948;2023-07-31T00:20:33;101164.20;;;22.27;55.92
59873;BME280;50750;51.636;4.948;2023-07-31T00:22:59;101160.66;;;22.27;55.81
59873;BME280;50750;51.636;4.948;2023-07-31T00:25:25;101157.80;;;22.27;55.86
59873;BME280;50750;51.636;4.948;2023-07-31T00:27:52;101156.40;;;22.26;55.87
59873;BME280;50750;51.636;4.948;2023-07-31T00:30:18;101154.40;;;22.27;55.87
59873;BME280;50750;51.636;4.948;2023-07-31T00:32:45;101155.15;;;22.26;55.96
59873;BME280;50750;51.636;4.948;2023-07-31T00:35:11;101153.89;;;22.27;55.81
59873;BME280;50750;51.636;4.948;2023-07-31T00:37:37;101148.92;;;22.26;55.87
59873;BME280;50750;51.636;4.948;2023-07-31T00:40:04;101151.97;;;22.26;55.85
59873;BME280;50750;51.636;4.948;2023-07-31T00:42:31;101152.34;;;22.26;55.90
59873;BME280;50750;51.636;4.948;2023-07-31T00:44:57;101149.66;;;22.26;55.97
59873;BME280;50750;51.636;4.948;2023-07-31T00:47:23;101151.69;;;22.25;55.86
59873;BME280;50750;51.636;4.948;2023-07-31T00:49:50;101149.69;;;22.26;55.88
59873;BME280;50750;51.636;4.948;2023-07-31T00:52:18;101147.94;;;22.25;55.73
59873;BME280;50750;51.636;4.948;2023-07-31T00:54:45;101142.39;;;22.26;55.94
59873;BME280;50750;51.636;4.948;2023-07-31T00:57:12;101142.95;;;22.25;55.69
59873;BME280;50750;51.636;4.948;2023-07-31T00:59:38;101140.45;;;22.25;55.89
59873;BME280;50750;51.636;4.948;2023-07-31T01:02:05;101144.21;;;22.25;55.91
59873;BME280;50750;51.636;4.948;2023-07-31T01:04:31;101141.73;;;22.25;55.92
59873;BME280;50750;51.636;4.948;2023-07-31T01:07:20;101138.36;;;22.22;55.88
59873;BME280;50750;51.636;4.948;2023-07-31T01:10:11;101147.62;;;22.25;55.98
59873;BME280;50750;51.636;4.948;2023-07-31T01:12:45;101145.48;;;22.25;55.87
59873;BME280;50750;51.636;4.948;2023-07-31T01:15:12;101141.92;;;22.25;55.96
59873;BME280;50750;51.636;4.948;2023-07-31T01:17:44;101138.23;;;22.24;55.87
59873;BME280;50750;51.636;4.948;2023-07-31T01:20:18;101136.88;;;22.23;55.83
59873;BME280;50750;51.636;4.948;2023-07-31T01:23:21;101140.80;;;22.23;55.84
59873;BME280;50750;51.636;4.948;2023-07-31T01:26:19;101137.46;;;22.22;55.88
59873;BME280;50750;51.636;4.948;2023-07-31T01:28:59;101136.25;;;22.22;56.09
59873;BME280;50750;51.636;4.948;2023-07-31T01:31:29;101136.81;;;22.22;56.02
59873;BME280;50750;51.636;4.948;2023-07-31T01:33:58;101138.25;;;22.22;55.82
59873;BME280;50750;51.636;4.948;2023-07-31T01:36:26;101137.34;;;22.22;55.87
59873;BME280;50750;51.636;4.948;2023-07-31T01:38:57;101135.92;;;22.21;55.93
59873;BME280;50750;51.636;4.948;2023-07-31T01:41:24;101132.16;;;22.22;55.97
59873;BME280;50750;51.636;4.948;2023-07-31T01:43:50;101133.05;;;22.21;55.98
59873;BME280;50750;51.636;4.948;2023-07-31T01:46:17;101128.09;;;22.21;55.83
59873;BME280;50750;51.636;4.948;2023-07-31T01:48:43;101126.29;;;22.21;55.99
59873;BME280;50750;51.636;4.948;2023-07-31T01:51:09;101124.68;;;22.21;55.96
59873;BME280;50750;51.636;4.948;2023-07-31T01:53:36;101119.52;;;22.21;55.93
59873;BME280;50750;51.636;4.948;2023-07-31T01:56:02;101118.63;;;22.21;55.99
59873;BME280;50750;51.636;4.948;2023-07-31T01:58:29;101114.16;;;22.22;55.82
59873;BME280;50750;51.636;4.948;2023-07-31T02:00:55;101110.98;;;22.21;55.96
59873;BME280;50750;51.636;4.948;2023-07-31T02:03:22;101100.67;;;22.21;56.02
59873;BME280;50750;51.636;4.948;2023-07-31T02:05:49;101101.02;;;22.21;55.87
59873;BME280;50750;51.636;4.948;2023-07-31T02:08:16;101103.35;;;22.20;55.79
59873;BME280;50750;51.636;4.948;2023-07-31T02:10:42;101098.00;;;22.21;56.01
59873;BME280;50750;51.636;4.948;2023-07-31T02:13:09;101097.48;;;22.20;55.96
59873;BME280;50750;51.636;4.948;2023-07-31T02:15:36;101088.56;;;22.20;55.82
59873;BME280;50750;51.636;4.948;2023-07-31T02:18:03;101088.27;;;22.19;55.76
59873;BME280;50750;51.636;4.948;2023-07-31T02:20:29;101086.64;;;22.20;55.80
59873;BME280;50750;51.636;4.948;2023-07-31T02:22:56;101084.40;;;22.19;55.94
59873;BME280;50750;51.636;4.948;2023-07-31T02:25:22;101082.39;;;22.19;55.92
59873;BME280;50750;51.636;4.948;2023-07-31T02:27:48;101082.77;;;22.19;55.94
59873;BME280;50750;51.636;4.948;2023-07-31T02:30:15;101081.70;;;22.19;55.85
59873;BME280;50750;51.636;4.948;2023-07-31T02:32:41;101076.02;;;22.19;55.85
59873;BME280;50750;51.636;4.948;2023-07-31T02:35:10;101081.39;;;22.18;55.81
59873;BME280;50750;51.636;4.948;2023-07-31T02:37:37;101077.47;;;22.18;55.77
59873;BME280;50750;51.636;4.948;2023-07-31T02:40:05;101069.10;;;22.18;55.86
59873;BME280;50750;51.636;4.948;2023-07-31T02:42:32;101067.49;;;22.18;55.85
59873;BME280;50750;51.636;4.948;2023-07-31T02:44:58;101068.95;;;22.18;55.86
59873;BME280;50750;51.636;4.948;2023-07-31T02:47:24;101068.60;;;22.18;55.81
59873;BME280;50750;51.636;4.948;2023-07-31T02:49:51;101073.96;;;22.17;55.78
59873;BME280;50750;51.636;4.948;2023-07-31T02:52:17;101063.32;;;22.17;55.88
59873;BME280;50750;51.636;4.948;2023-07-31T02:54:44;101063.48;;;22.17;55.87
59873;BME280;50750;51.636;4.948;2023-07-31T02:57:10;101061.54;;;22.16;55.80
59873;BME280;50750;51.636;4.948;2023-07-31T02:59:37;101055.84;;;22.16;55.77
59873;BME280;50750;51.636;4.948;2023-07-31T03:02:03;101055.87;;;22.16;55.83
59873;BME280;50750;51.636;4.948;2023-07-31T03:04:30;101055.89;;;22.16;55.72
59873;BME280;50750;51.636;4.948;2023-07-31T03:06:56;101054.30;;;22.15;55.74
59873;BME280;50750;51.636;4.948;2023-07-31T03:09:22;101049.30;;;22.15;55.78
59873;BME280;50750;51.636;4.948;2023-07-31T03:11:49;101041.49;;;22.15;55.71
59873;BME280;50750;51.636;4.948;2023-07-31T03:14:15;101043.84;;;22.15;55.75
59873;BME280;50750;51.636;4.948;2023-07-31T03:16:41;101041.89;;;22.15;55.78
59873;BME280;50750;51.636;4.948;2023-07-31T03:19:10;101039.77;;;22.14;55.71
59873;BME280;50750;51.636;4.948;2023-07-31T03:21:36;101040.52;;;22.14;55.82
59873;BME280;50750;51.636;4.948;2023-07-31T03:24:03;101039.80;;;22.14;55.91
59873;BME280;50750;51.636;4.948;2023-07-31T03:26:31;101037.85;;;22.14;55.94
59873;BME280;50750;51.636;4.948;2023-07-31T03:28:57;101035.17;;;22.14;55.76
59873;BME280;50750;51.636;4.948;2023-07-31T03:31:24;101033.92;;;22.14;55.71
59873;BME280;50750;51.636;4.948;2023-07-31T03:33:50;101027.19;;;22.13;55.76
59873;BME280;50750;51.636;4.948;2023-07-31T03:36:16;101027.57;;;22.13;55.74
59873;BME280;50750;51.636;4.948;2023-07-31T03:38:43;101027.55;;;22.13;55.62
59873;BME280;50750;51.636;4.948;2023-07-31T03:41:09;101025.45;;;22.13;55.77
59873;BME280;50750;51.636;4.948;2023-07-31T03:43:36;101024.59;;;22.12;55.66
59873;BME280;50750;51.636;4.948;2023-07-31T03:46:03;101022.30;;;22.12;55.80
59873;BME280;50750;51.636;4.948;2023-07-31T03:48:30;101019.45;;;22.12;55.92
59873;BME280;50750;51.636;4.948;2023-07-31T03:50:56;101020.73;;;22.12;55.74
59873;BME280;50750;51.636;4.948;2023-07-31T03:53:23;101014.33;;;22.11;55.76
59873;BME280;50750;51.636;4.948;2023-07-31T03:55:49;101013.09;;;22.11;55.65
59873;BME280;50750;51.636;4.948;2023-07-31T03:58:16;101009.02;;;22.11;55.72
59873;BME280;50750;51.636;4.948;2023-07-31T04:00:42;101007.59;;;22.11;55.59
59873;BME280;50750;51.636;4.948;2023-07-31T04:03:08;101007.46;;;22.10;55.73
59873;BME280;50750;51.636;4.948;2023-07-31T04:05:38;101004.76;;;22.10;55.78
59873;BME280;50750;51.636;4.948;2023-07-31T04:08:05;101003.34;;;22.10;55.77
59873;BME280;50750;51.636;4.948;2023-07-31T04:10:31;101002.14;;;22.10;55.71
59873;BME280;50750;51.636;4.948;2023-07-31T04:13:00;101001.09;;;22.09;55.84
59873;BME280;50750;51.636;4.948;2023-07-31T04:15:26;100995.70;;;22.10;55.85
59873;BME280;50750;51.636;4.948;2023-07-31T04:17:53;100991.48;;;22.09;55.75
59873;BME280;50750;51.636;4.948;2023-07-31T04:20:19;100987.40;;;22.09;55.80
59873;BME280;50750;51.636;4.948;2023-07-31T04:22:46;100982.22;;;22.09;55.74
59873;BME280;50750;51.636;4.948;2023-07-31T04:25:12;100979.42;;;22.08;55.82
59873;BME280;50750;51.636;4.948;2023-07-31T04:27:39;100975.14;;;22.08;55.76
59873;BME280;50750;51.636;4.948;2023-07-31T04:30:06;100971.74;;;22.08;55.70
59873;BME280;50750;51.636;4.948;2023-07-31T04:32:33;100969.08;;;22.08;55.82
59873;BME280;50750;51.636;4.948;2023-07-31T04:34:59;100966.08;;;22.08;55.62
59873;BME280;50750;51.636;4.948;2023-07-31T04:37:25;100968.58;;;22.08;55.63
59873;BME280;50750;51.636;4.948;2023-07-31T04:39:52;100962.00;;;22.08;55.81
59873;BME280;50750;51.636;4.948;2023-07-31T04:42:18;100959.13;;;22.08;55.80
59873;BME280;50750;51.636;4.948;2023-07-31T04:44:44;100958.45;;;22.07;55.71
59873;BME280;50750;51.636;4.948;2023-07-31T04:47:11;100954.76;;;22.07;55.77
59873;BME280;50750;51.636;4.948;2023-07-31T04:49:37;100951.38;;;22.06;55.71
59873;BME280;50750;51.636;4.948;2023-07-31T04:52:04;100947.44;;;22.07;55.79
59873;BME280;50750;51.636;4.948;2023-07-31T04:54:31;100945.49;;;22.06;55.68
59873;BME280;50750;51.636;4.948;2023-07-31T04:56:57;100942.27;;;22.06;55.70
59873;BME280;50750;51.636;4.948;2023-07-31T04:59:23;100936.59;;;22.06;55.63
59873;BME280;50750;51.636;4.948;2023-07-31T05:01:50;100935.55;;;22.06;55.77
59873;BME280;50750;51.636;4.948;2023-07-31T05:04:16;100936.78;;;22.06;55.66
59873;BME280;50750;51.636;4.948;2023-07-31T05:06:43;100936.86;;;22.05;55.72
59873;BME280;50750;51.636;4.948;2023-07-31T05:09:09;100939.15;;;22.05;55.70
59873;BME280;50750;51.636;4.948;2023-07-31T05:11:36;100941.83;;;22.05;55.71
59873;BME280;50750;51.636;4.948;2023-07-31T05:14:02;100938.09;;;22.05;55.68
59873;BME280;50750;51.636;4.948;2023-07-31T05:16:29;100935.46;;;22.05;55.59
59873;BME280;50750;51.636;4.948;2023-07-31T05:18:55;100935.44;;;22.05;55.51
59873;BME280;50750;51.636;4.948;2023-07-31T05:21:22;100932.09;;;22.04;55.57
59873;BME280;50750;51.636;4.948;2023-07-31T05:23:48;100927.25;;;22.05;55.62
59873;BME280;50750;51.636;4.948;2023-07-31T05:26:15;100924.06;;;22.04;55.72
59873;BME280;50750;51.636;4.948;2023-07-31T05:28:41;100924.63;;;22.04;55.50
59873;BME280;50750;51.636;4.948;2023-07-31T05:31:07;100920.88;;;22.04;55.67
59873;BME280;50750;51.636;4.948;2023-07-31T05:33:34;100917.16;;;22.04;55.77
59873;BME280;50750;51.636;4.948;2023-07-31T05:36:00;100913.44;;;22.03;55.48
59873;BME280;50750;51.636;4.948;2023-07-31T05:38:27;100910.77;;;22.04;55.74
59873;BME280;50750;51.636;4.948;2023-07-31T05:40:53;100907.39;;;22.03;55.79
59873;BME280;50750;51.636;4.948;2023-07-31T05:43:19;100907.95;;;22.03;55.68
59873;BME280;50750;51.636;4.948;2023-07-31T05:45:47;100902.97;;;22.03;55.61
59873;BME280;50750;51.636;4.948;2023-07-31T05:48:13;100899.59;;;22.03;55.81
59873;BME280;50750;51.636;4.948;2023-07-31T05:50:40;100899.44;;;22.02;55.66
59873;BME280;50750;51.636;4.948;2023-07-31T05:53:06;100900.32;;;22.03;55.53
59873;BME280;50750;51.636;4.948;2023-07-31T05:55:34;100900.17;;;22.02;55.68
59873;BME280;50750;51.636;4.948;2023-07-31T05:58:00;100900.37;;;22.02;55.73
59873;BME280;50750;51.636;4.948;2023-07-31T06:00:27;100897.70;;;22.02;55.73
59873;BME280;50750;51.636;4.948;2023-07-31T06:02:54;100896.48;;;22.01;55.68
59873;BME280;50750;51.636;4.948;2023-07-31T06:05:20;100898.42;;;22.02;55.71
59873;BME280;50750;51.636;4.948;2023-07-31T06:07:47;100892.88;;;22.02;55.82
59873;BME280;50750;51.636;4.948;2023-07-31T06:10:13;100887.19;;;22.01;55.74
59873;BME280;50750;51.636;4.948;2023-07-31T06:12:40;100883.81;;;22.02;55.76
59873;BME280;50750;51.636;4.948;2023-07-31T06:15:06;100887.09;;;22.01;55.81
59873;BME280;50750;51.636;4.948;2023-07-31T06:17:33;100881.73;;;22.01;55.73
59873;BME280;50750;51.636;4.948;2023-07-31T06:19:59;100882.75;;;22.02;55.73
59873;BME280;50750;51.636;4.948;2023-07-31T06:22:25;100882.80;;;22.01;55.74
59873;BME280;50750;51.636;4.948;2023-07-31T06:24:52;100885.34;;;22.00;55.96
59873;BME280;50750;51.636;4.948;2023-07-31T06:27:18;100879.98;;;22.01;55.93
59873;BME280;50750;51.636;4.948;2023-07-31T06:29:45;100876.95;;;22.00;55.92
59873;BME280;50750;51.636;4.948;2023-07-31T06:32:11;100877.17;;;22.00;55.81
59873;BME280;50750;51.636;4.948;2023-07-31T06:34:37;100871.83;;;22.00;55.94
59873;BME280;50750;51.636;4.948;2023-07-31T06:37:04;100870.58;;;22.00;55.79
59873;BME280;50750;51.636;4.948;2023-07-31T06:39:31;100869.20;;;21.99;55.85
59873;BME280;50750;51.636;4.948;2023-07-31T06:41:57;100865.42;;;22.00;55.79
59873;BME280;50750;51.636;4.948;2023-07-31T06:44:24;100860.08;;;22.00;55.96
59873;BME280;50750;51.636;4.948;2023-07-31T06:46:50;100859.56;;;21.99;55.94
59873;BME280;50750;51.636;4.948;2023-07-31T06:49:17;100858.64;;;22.00;55.97
59873;BME280;50750;51.636;4.948;2023-07-31T06:51:44;100861.48;;;22.00;55.89
59873;BME280;50750;51.636;4.948;2023-07-31T06:54:10;100857.29;;;21.99;55.89
59873;BME280;50750;51.636;4.948;2023-07-31T06:56:36;100852.80;;;21.99;55.94
59873;BME280;50750;51.636;4.948;2023-07-31T06:59:03;100850.67;;;21.99;56.03
59873;BME280;50750;51.636;4.948;2023-07-31T07:01:29;100847.30;;;21.99;55.87
59873;BME280;50750;51.636;4.948;2023-07-31T07:03:56;100844.08;;;21.99;55.91
59873;BME280;50750;51.636;4.948;2023-07-31T07:06:22;100840.00;;;21.99;55.87
59873;BME280;50750;51.636;4.948;2023-07-31T07:08:49;100842.34;;;21.99;55.87
59873;BME280;50750;51.636;4.948;2023-07-31T07:11:15;100842.54;;;21.98;55.98
59873;BME280;50750;51.636;4.948;2023-07-31T07:13:41;100838.61;;;21.98;55.87
59873;BME280;50750;51.636;4.948;2023-07-31T07:16:08;100843.96;;;21.98;56.02
59873;BME280;50750;51.636;4.948;2023-07-31T07:18:34;100836.48;;;21.98;56.01
59873;BME280;50750;51.636;4.948;2023-07-31T07:21:01;100838.09;;;21.98;56.01
59873;BME280;50750;51.636;4.948;2023-07-31T07:23:28;100835.96;;;21.98;56.13
59873;BME280;50750;51.636;4.948;2023-07-31T07:25:55;100841.30;;;21.98;56.02
59873;BME280;50750;51.636;4.948;2023-07-31T07:28:21;100838.45;;;21.98;56.02
59873;BME280;50750;51.636;4.948;2023-07-31T07:30:51;100838.27;;;21.98;55.93
59873;BME280;50750;51.636;4.948;2023-07-31T07:33:19;100840.02;;;21.98;55.95
59873;BME280;50750;51.636;4.948;2023-07-31T07:35:46;100837.77;;;21.98;56.19
59873;BME280;50750;51.636;4.948;2023-07-31T07:38:14;100837.23;;;21.98;56.07
59873;BME280;50750;51.636;4.948;2023-07-31T07:40:41;100838.42;;;21.98;56.10
59873;BME280;50750;51.636;4.948;2023-07-31T07:43:08;100842.40;;;21.97;56.01
59873;BME280;50750;51.636;4.948;2023-07-31T07:45:34;100841.48;;;21.98;56.11
59873;BME280;50750;51.636;4.948;2023-07-31T07:48:00;100844.91;;;21.97;56.14
59873;BME280;50750;51.636;4.948;2023-07-31T07:50:27;100842.80;;;21.97;56.05
59873;BME280;50750;51.636;4.948;2023-07-31T07:52:53;100843.30;;;21.97;56.13
59873;BME280;50750;51.636;4.948;2023-07-31T07:55:19;100840.98;;;21.97;56.04
59873;BME280;50750;51.636;4.948;2023-07-31T07:57:46;100844.25;;;21.97;56.23
59873;BME280;50750;51.636;4.948;2023-07-31T08:00:13;100843.38;;;21.97;56.13
59873;BME280;50750;51.636;4.948;2023-07-31T08:02:40;100844.62;;;21.97;56.26
59873;BME280;50750;51.636;4.948;2023-07-31T08:05:06;100846.95;;;21.97;56.23
59873;BME280;50750;51.636;4.948;2023-07-31T08:07:33;100844.30;;;21.96;56.35
59873;BME280;50750;51.636;4.948;2023-07-31T08:09:59;100843.38;;;21.97;56.27
59873;BME280;50750;51.636;4.948;2023-07-31T08:12:26;100841.45;;;21.96;56.16
59873;BME280;50750;51.636;4.948;2023-07-31T08:14:52;100837.19;;;21.96;56.21
59873;BME280;50750;51.636;4.948;2023-07-31T08:17:19;100834.00;;;21.96;56.29
59873;BME280;50750;51.636;4.948;2023-07-31T08:19:45;100835.80;;;21.95;56.40
59873;BME280;50750;51.636;4.948;2023-07-31T08:22:12;100833.66;;;21.96;56.32
59873;BME280;50750;51.636;4.948;2023-07-31T08:24:38;100833.14;;;21.95;56.34
59873;BME280;50750;51.636;4.948;2023-07-31T08:27:06;100831.55;;;21.95;56.44
59873;BME280;50750;51.636;4.948;2023-07-31T08:29:32;100828.82;;;21.96;56.29
59873;BME280;50750;51.636;4.948;2023-07-31T08:31:58;100824.70;;;21.96;56.35
59873;BME280;50750;51.636;4.948;2023-07-31T08:34:25;100822.34;;;21.97;56.46
59873;BME280;50750;51.636;4.948;2023-07-31T08:36:51;100823.55;;;21.97;56.44
59873;BME280;50750;51.636;4.948;2023-07-31T08:39:17;100823.16;;;21.98;56.31
59873;BME280;50750;51.636;4.948;2023-07-31T08:41:44;100821.35;;;21.98;56.46
59873;BME280;50750;51.636;4.948;2023-07-31T08:44:12;100825.27;;;21.98;56.33
59873;BME280;50750;51.636;4.948;2023-07-31T08:46:39;100822.08;;;21.98;56.32
59873;BME280;50750;51.636;4.948;2023-07-31T08:49:07;100822.98;;;21.98;56.31
59873;BME280;50750;51.636;4.948;2023-07-31T08:51:34;100822.29;;;21.97;56.47
59873;BME280;50750;51.636;4.948;2023-07-31T08:54:02;100819.67;;;21.96;56.30
59873;BME280;50750;51.636;4.948;2023-07-31T08:56:32;100821.30;;;21.96;56.31
59873;BME280;50750;51.636;4.948;2023-07-31T08:59:00;100817.56;;;21.96;56.41
59873;BME280;50750;51.636;4.948;2023-07-31T09:01:29;100811.37;;;21.96;56.35
59873;BME280;50750;51.636;4.948;2023-07-31T09:03:59;100812.42;;;21.96;56.37
59873;BME280;50750;51.636;4.948;2023-07-31T09:06:28;100816.55;;;21.96;56.35
59873;BME280;50750;51.636;4.948;2023-07-31T09:08:56;100812.79;;;21.96;56.57
59873;BME280;50750;51.636;4.948;2023-07-31T09:11:23;100815.14;;;21.95;56.54
59873;BME280;50750;51.636;4.948;2023-07-31T09:13:52;100810.34;;;21.95;56.46
59873;BME280;50750;51.636;4.948;2023-07-31T09:16:18;100807.83;;;21.95;56.38
59873;BME280;50750;51.636;4.948;2023-07-31T09:18:53;100805.50;;;21.95;56.48
59873;BME280;50750;51.636;4.948;2023-07-31T09:21:21;100803.21;;;21.95;56.46
59873;BME280;50750;51.636;4.948;2023-07-31T09:23:47;100797.48;;;21.95;56.48
59873;BME280;50750;51.636;4.948;2023-07-31T09:26:33;100797.69;;;21.95;56.57
59873;BME280;50750;51.636;4.948;2023-07-31T09:29:04;100799.64;;;21.95;56.60
59873;BME280;50750;51.636;4.948;2023-07-31T09:31:41;100797.67;;;21.95;56.50
59873;BME280;50750;51.636;4.948;2023-07-31T09:34:09;100796.96;;;21.95;56.54
59873;BME280;50750;51.636;4.948;2023-07-31T09:36:41;100800.20;;;21.95;56.43
59873;BME280;50750;51.636;4.948;2023-07-31T09:39:09;100800.92;;;21.95;56.63
59873;BME280;50750;51.636;4.948;2023-07-31T09:41:38;100800.75;;;21.94;56.41
59873;BME280;50750;51.636;4.948;2023-07-31T09:44:05;100795.21;;;21.95;56.63
59873;BME280;50750;51.636;4.948;2023-07-31T09:46:35;100792.53;;;21.95;56.56
59873;BME280;50750;51.636;4.948;2023-07-31T09:49:12;100788.61;;;21.95;56.47
59873;BME280;50750;51.636;4.948;2023-07-31T09:51:41;100789.33;;;21.95;56.63
59873;BME280;50750;51.636;4.948;2023-07-31T09:54:12;100793.39;;;21.95;56.63
59873;BME280;50750;51.636;4.948;2023-07-31T09:56:44;100793.58;;;21.95;56.84
59873;BME280;50750;51.636;4.948;2023-07-31T09:59:14;100790.93;;;21.95;56.72
59873;BME280;50750;51.636;4.948;2023-07-31T10:01:42;100791.10;;;21.95;56.60
59873;BME280;50750;51.636;4.948;2023-07-31T10:04:10;100785.75;;;21.95;56.62
59873;BME280;50750;51.636;4.948;2023-07-31T10:06:38;100782.55;;;21.95;56.64
59873;BME280;50750;51.636;4.948;2023-07-31T10:09:08;100784.30;;;21.95;56.54
59873;BME280;50750;51.636;4.948;2023-07-31T10:11:38;100779.46;;;21.96;56.65
59873;BME280;50750;51.636;4.948;2023-07-31T10:14:08;100777.36;;;21.95;56.60
59873;BME280;50750;51.636;4.948;2023-07-31T10:16:38;100781.80;;;21.95;56.49
59873;BME280;50750;51.636;4.948;2023-07-31T10:19:04;100782.52;;;21.95;56.65
59873;BME280;50750;51.636;4.948;2023-07-31T10:21:32;100786.11;;;21.95;56.80
59873;BME280;50750;51.636;4.948;2023-07-31T10:24:03;100783.66;;;21.94;56.86
59873;BME280;50750;51.636;4.948;2023-07-31T10:26:33;100780.45;;;21.94;56.71
59873;BME280;50750;51.636;4.948;2023-07-31T10:29:01;100788.70;;;21.94;56.76
59873;BME280;50750;51.636;4.948;2023-07-31T10:31:28;100788.53;;;21.94;56.79
59873;BME280;50750;51.636;4.948;2023-07-31T10:33:57;100789.63;;;21.93;56.76
59873;BME280;50750;51.636;4.948;2023-07-31T10:36:25;100785.17;;;21.93;56.62
59873;BME280;50750;51.636;4.948;2023-07-31T10:38:52;100787.15;;;21.93;56.80
59873;BME280;50750;51.636;4.948;2023-07-31T10:41:18;100793.01;;;21.93;56.78
59873;BME280;50750;51.636;4.948;2023-07-31T10:43:48;100795.27;;;21.94;56.64
59873;BME280;50750;51.636;4.948;2023-07-31T10:46:14;100790.47;;;21.94;56.80
59873;BME280;50750;51.636;4.948;2023-07-31T10:48:41;100790.64;;;21.94;56.86
59873;BME280;50750;51.636;4.948;2023-07-31T10:51:10;100787.40;;;21.94;56.77
59873;BME280;50750;51.636;4.948;2023-07-31T10:53:37;100784.20;;;21.94;56.97
59873;BME280;50750;51.636;4.948;2023-07-31T10:56:09;100785.96;;;21.94;56.82
59873;BME280;50750;51.636;4.948;2023-07-31T10:58:38;100785.04;;;21.95;56.89
59873;BME280;50750;51.636;4.948;2023-07-31T11:01:05;100783.44;;;21.95;57.06
59873;BME280;50750;51.636;4.948;2023-07-31T11:03:43;100781.46;;;21.95;57.00
59873;BME280;50750;51.636;4.948;2023-07-31T11:06:10;100777.37;;;21.95;56.87
59873;BME280;50750;51.636;4.948;2023-07-31T11:08:45;100777.92;;;21.95;56.89
59873;BME280;50750;51.636;4.948;2023-07-31T11:11:14;100777.70;;;21.95;56.93
59873;BME280;50750;51.636;4.948;2023-07-31T11:13:52;100776.43;;;21.96;56.98
59873;BME280;50750;51.636;4.948;2023-07-31T11:16:21;100776.60;;;21.96;57.04
59873;BME280;50750;51.636;4.948;2023-07-31T11:18:48;100767.90;;;21.95;56.91
59873;BME280;50750;51.636;4.948;2023-07-31T11:21:22;100763.61;;;21.95;56.86
59873;BME280;50750;51.636;4.948;2023-07-31T11:23:56;100761.96;;;21.96;56.93
59873;BME280;50750;51.636;4.948;2023-07-31T11:26:23;100764.24;;;21.96;57.02
59873;BME280;50750;51.636;4.948;2023-07-31T11:28:50;100763.73;;;21.96;56.93
59873;BME280;50750;51.636;4.948;2023-07-31T11:31:18;100763.34;;;21.96;57.02
59873;BME280;50750;51.636;4.948;2023-07-31T11:33:45;100760.84;;;21.97;56.95
59873;BME280;50750;51.636;4.948;2023-07-31T11:36:17;100751.91;;;21.97;56.94
59873;BME280;50750;51.636;4.948;2023-07-31T11:38:44;100749.60;;;21.96;56.95
59873;BME280;50750;51.636;4.948;2023-07-31T11:41:14;100751.01;;;21.97;56.92
59873;BME280;50750;51.636;4.948;2023-07-31T11:43:40;100745.10;;;21.97;56.95
59873;BME280;50750;51.636;4.948;2023-07-31T11:46:07;100745.81;;;21.97;56.97
59873;BME280;50750;51.636;4.948;2023-07-31T11:48:34;100740.31;;;21.97;56.96
59873;BME280;50750;51.636;4.948;2023-07-31T11:51:06;100736.89;;;21.97;56.86
59873;BME280;50750;51.636;4.948;2023-07-31T11:53:42;100749.36;;;21.97;56.92
59873;BME280;50750;51.636;4.948;2023-07-31T11:56:12;100752.75;;;21.97;56.96
59873;BME280;50750;51.636;4.948;2023-07-31T11:58:40;100747.41;;;21.97;56.90
59873;BME280;50750;51.636;4.948;2023-07-31T12:01:07;100750.59;;;21.97;56.88
59873;BME280;50750;51.636;4.948;2023-07-31T12:03:35;100750.80;;;21.97;56.91
59873;BME280;50750;51.636;4.948;2023-07-31T12:06:01;100753.80;;;21.97;56.88
59873;BME280;50750;51.636;4.948;2023-07-31T12:08:29;100751.48;;;21.97;56.96
59873;BME280;50750;51.636;4.948;2023-07-31T12:11:06;100747.02;;;21.97;57.06
59873;BME280;50750;51.636;4.948;2023-07-31T12:13:33;100742.39;;;21.98;56.97
59873;BME280;50750;51.636;4.948;2023-07-31T12:16:01;100731.15;;;21.98;56.93
59873;BME280;50750;51.636;4.948;2023-07-31T12:18:33;100724.38;;;21.98;56.88
59873;BME280;50750;51.636;4.948;2023-07-31T12:21:02;100726.17;;;21.97;57.02
59873;BME280;50750;51.636;4.948;2023-07-31T12:23:31;100728.10;;;21.98;57.03
59873;BME280;50750;51.636;4.948;2023-07-31T12:26:01;100734.88;;;21.98;57.03
59873;BME280;50750;51.636;4.948;2023-07-31T12:28:28;100729.73;;;21.97;56.91
59873;BME280;50750;51.636;4.948;2023-07-31T12:31:00;100725.77;;;21.98;56.97
59873;BME280;50750;51.636;4.948;2023-07-31T12:33:34;100726.52;;;21.98;56.96
59873;BME280;50750;51.636;4.948;2023-07-31T12:36:03;100716.87;;;21.98;57.03
59873;BME280;50750;51.636;4.948;2023-07-31T12:38:30;100710.63;;;21.98;56.98
59873;BME280;50750;51.636;4.948;2023-07-31T12:40:57;100707.95;;;21.98;56.93
59873;BME280;50750;51.636;4.948;2023-07-31T12:43:24;100701.66;;;21.98;57.01
59873;BME280;50750;51.636;4.948;2023-07-31T12:45:50;100702.90;;;21.99;57.02
59873;BME280;50750;51.636;4.948;2023-07-31T12:48:17;100707.56;;;21.98;57.10
59873;BME280;50750;51.636;4.948;2023-07-31T12:50:44;100709.55;;;21.98;57.16
59873;BME280;50750;51.636;4.948;2023-07-31T12:53:10;100706.87;;;21.98;57.10